DW1490 Weather Reports


Display with metric or nautical units.
time (UTC)temp
F
wind
direction
speed
MPH
gust
MPH
rain 1hr
in
rain 24hr
in
rain mn
in
humidity
%
barometer
mb
20210921143531 60 16 3.0 8.0 0.00 0.00 0.00 28 1033.3
20210921142525 60 173 2.0 8.0 0.00 0.00 0.00 29 1033.2
20210921141532 58 165 4.0 8.0 0.00 0.00 0.00 29 1032.8
20210921140525 58 141 3.0 5.0 0.00 0.00 0.00 30 1032.8
20210921135532 58 129 3.0 5.0 0.00 0.00 0.00 31 1032.7
20210921134526 56 165 4.0 8.0 0.00 0.00 0.00 33 1032.6
20210921133517 55 116 2.0 5.0 0.00 0.00 0.00 33 1032.0
20210921132524 53 95 2.0 5.0 0.00 0.00 0.00 35 1031.9
20210921131533 54 103 2.0 5.0 0.00 0.00 0.00 34 1031.9
20210921130526 53 102 2.0 3.0 0.00 0.00 0.00 34 1031.6
20210921125532 54 13 2.0 5.0 0.00 0.00 0.00 33 1031.8
20210921124524 54 99 5.0 8.0 0.00 0.00 0.00 32 1032.0
20210921123531 54 90 3.0 5.0 0.00 0.00 0.00 31 1031.7
20210921122525 55 102 1.0 3.0 0.00 0.00 0.00 30 1031.9
20210921121532 54 52 3.0 5.0 0.00 0.00 0.00 30 1031.2
20210921120525 53 101 0.0 3.0 0.00 0.00 0.00 34 1031.2
20210921115533 53 102 0.0 3.0 0.00 0.00 0.00 36 1030.9
20210921114524 54 87 6.0 10.0 0.00 0.00 0.00 37 1031.1
20210921113533 55 86 1.0 3.0 0.00 0.00 0.00 34 1030.9
20210921112525 54 99 2.0 5.0 0.00 0.00 0.00 34 1030.8
20210921111517 55 90 1.0 3.0 0.00 0.00 0.00 33 1031.0
20210921110525 56 121 1.0 5.0 0.00 0.00 0.00 32 1031.0
20210921105515 57 119 2.0 5.0 0.00 0.00 0.00 30 1031.2
20210921104525 57 100 1.0 5.0 0.00 0.00 0.00 29 1031.0
20210921103516 58 117 2.0 8.0 0.00 0.00 0.00 27 1031.3
20210921102526 59 46 3.0 10.0 0.00 0.00 0.00 25 1031.6
20210921101516 59 96 1.0 10.0 0.00 0.00 0.00 27 1031.6
20210921100525 60 6 7.0 13.0 0.00 0.00 0.00 25 1031.6
20210921095516 59 78 2.0 8.0 0.00 0.00 0.00 26 1031.6
20210921094524 60 89 2.0 8.0 0.00 0.00 0.00 26 1031.4
20210921093516 60 85 2.0 8.0 0.00 0.00 0.00 26 1031.2
20210921092524 61 31 7.0 13.0 0.00 0.00 0.00 25 1031.4
20210921091533 59 111 0.0 3.0 0.00 0.00 0.00 27 1030.8
20210921090524 60 112 0.0 3.0 0.00 0.00 0.00 27 1030.8
20210921085518 60 102 1.0 3.0 0.00 0.00 0.00 29 1030.2
20210921084525 62 61 2.0 5.0 0.00 0.00 0.00 26 1030.8
20210921083515 61 59 3.0 5.0 0.00 0.00 0.00 28 1030.5
20210921082526 62 93 2.0 5.0 0.00 0.00 0.00 27 1030.4
20210921081516 62 111 1.0 5.0 0.00 0.00 0.00 28 1030.7
20210921080526 64 126 1.0 5.0 0.00 0.00 0.00 25 1031.0
20210921075516 65 353 6.0 10.0 0.00 0.00 0.00 24 1031.0
20210921074524 65 14 6.0 13.0 0.00 0.00 0.00 24 1030.7
20210921073516 66 7 5.0 10.0 0.00 0.00 0.00 24 1030.7
20210921072524 66 359 7.0 15.0 0.00 0.00 0.00 24 1030.8
20210921071517 66 9 6.0 13.0 0.00 0.00 0.00 24 1030.4
20210921070524 66 17 6.0 15.0 0.00 0.00 0.00 24 1030.4
20210921065517 66 24 5.0 15.0 0.00 0.00 0.00 25 1030.3
20210921064524 65 33 5.0 8.0 0.00 0.00 0.00 26 1029.9
20210921063517 64 106 0.0 3.0 0.00 0.00 0.00 28 1029.6
20210921062525 65 110 0.0 3.0 0.00 0.00 0.00 27 1029.9
20210921061516 66 91 1.0 3.0 0.00 0.00 0.00 25 1029.8
20210921060526 68 18 5.0 13.0 0.00 0.00 0.00 24 1030.0
20210921055516 67 2 7.0 13.0 0.00 0.00 0.00 25 1029.5
20210921054525 67 352 8.0 15.0 0.00 0.00 0.00 25 1029.5
20210921053517 68 21 4.0 10.0 0.00 0.00 0.00 25 1029.5
20210921052525 68 18 6.0 10.0 0.00 0.00 0.00 25 1029.4
20210921051533 68 357 7.0 18.0 0.00 0.00 0.00 25 1029.1
20210921050524 68 326 7.0 15.0 0.00 0.00 0.00 25 1029.3
20210921045517 69 345 7.0 18.0 0.00 0.00 0.00 25 1028.8
20210921044526 69 2 6.0 15.0 0.00 0.00 0.00 25 1029.0
20210921043517 70 360 7.0 15.0 0.00 0.00 0.00 24 1028.6
20210921042525 70 359 5.0 15.0 0.00 0.00 0.00 24 1028.6
20210921041516 69 50 3.0 10.0 0.00 0.00 0.00 25 1028.5
20210921040525 70 22 4.0 10.0 0.00 0.00 0.00 25 1028.1
20210921035516 71 22 4.0 10.0 0.00 0.00 0.00 24 1028.2
20210921034528 71 334 5.0 13.0 0.00 0.00 0.00 24 1028.2
20210921033517 72 315 6.0 10.0 0.00 0.00 0.00 23 1028.3
20210921032527 72 324 6.0 13.0 0.00 0.00 0.00 23 1027.8
20210921031517 72 319 7.0 18.0 0.00 0.00 0.00 23 1027.3
20210921030540 73 357 5.0 13.0 0.00 0.00 0.00 23 1027.1
20210921025519 73 358 10.0 23.0 0.00 0.00 0.00 22 1026.9
20210921024524 73 9 7.0 15.0 0.00 0.00 0.00 23 1026.9
20210921023518 74 32 4.0 13.0 0.00 0.00 0.00 22 1026.5
20210921022526 74 3 8.0 18.0 0.00 0.00 0.00 22 1026.3
20210921021518 74 350 9.0 28.0 0.00 0.00 0.00 22 1025.7
20210921020525 75 352 10.0 23.0 0.00 0.00 0.00 22 1025.7
20210921015517 75 328 10.0 25.0 0.00 0.00 0.00 22 1025.5
20210921014525 76 320 10.0 25.0 0.00 0.00 0.00 22 1025.2
20210921013517 76 329 14.0 28.0 0.00 0.00 0.00 22 1024.6
20210921012526 77 352 11.0 25.0 0.00 0.00 0.00 22 1024.5
20210921011517 77 345 9.0 18.0 0.00 0.00 0.00 21 1024.3
20210921010525 78 319 13.0 30.0 0.00 0.00 0.00 20 1024.4
20210921005517 79 352 9.0 20.0 0.00 0.00 0.00 19 1024.2
20210921004524 80 355 10.0 23.0 0.00 0.00 0.00 17 1024.2
20210921003517 80 359 10.0 20.0 0.00 0.00 0.00 17 1024.2
20210921002540 81 20 8.0 18.0 0.00 0.00 0.00 17 1024.2
20210921001518 81 1 9.0 20.0 0.00 0.00 0.00 17 1024.2
20210921000525 82 328 12.0 23.0 0.00 0.00 0.00 17 1024.5
20210920235533 82 358 9.0 23.0 0.00 0.00 0.00 17 1024.5
20210920234525 82 322 14.0 33.0 0.00 0.00 0.00 17 1024.4
20210920233516 82 354 13.0 28.0 0.00 0.00 0.00 16 1024.3
20210920232525 83 335 13.0 25.0 0.00 0.00 0.00 16 1024.4
20210920231517 84 314 14.0 25.0 0.00 0.00 0.00 17 1024.7
20210920230526 83 336 13.0 28.0 0.00 0.00 0.00 17 1024.4
20210920225517 84 321 11.0 23.0 0.00 0.00 0.00 16 1024.7
20210920224524 84 311 15.0 38.0 0.00 0.00 0.00 16 1024.7
20210920223518 85 280 13.0 25.0 0.00 0.00 0.00 16 1025.0
20210920222526 85 316 5.0 20.0 0.00 0.00 0.00 16 1025.0
20210920221520 85 327 9.0 23.0 0.00 0.00 0.00 16 1025.1
20210920220525 85 330 9.0 20.0 0.00 0.00 0.00 16 1025.3
20210920215518 85 274 14.0 35.0 0.00 0.00 0.00 17 1025.3
20210920214525 85 311 10.0 25.0 0.00 0.00 0.00 17 1025.6
20210920213516 84 292 8.0 20.0 0.00 0.00 0.00 17 1025.3
20210920212543 85 286 9.0 18.0 0.00 0.00 0.00 18 1025.6
20210920211517 86 256 10.0 28.0 0.00 0.00 0.00 18 1026.0
20210920210526 84 272 6.0 15.0 0.00 0.00 0.00 20 1025.7
20210920205517 83 219 4.0 15.0 0.00 0.00 0.00 20 1025.8
20210920204525 84 292 12.0 30.0 0.00 0.00 0.00 19 1026.2
20210920203517 83 283 10.0 33.0 0.00 0.00 0.00 20 1025.9
20210920202541 83 307 11.0 28.0 0.00 0.00 0.00 21 1026.1
20210920201517 84 245 7.0 23.0 0.00 0.00 0.00 21 1026.5
20210920200526 84 281 13.0 28.0 0.00 0.00 0.00 21 1026.9
20210920195519 83 258 3.0 13.0 0.00 0.00 0.00 22 1026.6
20210920194525 82 268 7.0 20.0 0.00 0.00 0.00 22 1026.7
20210920193516 81 222 6.0 20.0 0.00 0.00 0.00 23 1026.5
20210920192542 82 204 4.0 8.0 0.00 0.00 0.00 26 1027.0
20210920191518 80 181 6.0 13.0 0.00 0.00 0.00 27 1027.1
20210920190526 80 174 5.0 13.0 0.00 0.00 0.00 28 1027.2
20210920185517 80 190 5.0 13.0 0.00 0.00 0.00 28 1027.3
20210920184524 79 153 9.0 18.0 0.00 0.00 0.00 28 1027.4
20210920183517 79 62 3.0 8.0 0.00 0.00 0.00 29 1027.6
20210920182526 79 246 5.0 10.0 0.00 0.00 0.00 29 1027.6
20210920181518 79 117 3.0 5.0 0.00 0.00 0.00 30 1027.6
20210920180525 78 193 5.0 10.0 0.00 0.00 0.00 31 1027.8
20210920175518 77 255 9.0 25.0 0.00 0.00 0.00 32 1027.8
20210920174526 78 205 4.0 15.0 0.00 0.00 0.00 31 1028.0
20210920173516 77 269 5.0 15.0 0.00 0.00 0.00 32 1027.7
20210920172525 77 208 5.0 10.0 0.00 0.00 0.00 32 1027.8
20210920171517 77 78 5.0 15.0 0.00 0.00 0.00 32 1028.1
20210920170526 78 131 1.0 5.0 0.00 0.00 0.00 32 1028.2
20210920165517 76 149 4.0 8.0 0.00 0.00 0.00 34 1028.2
20210920164526 77 160 4.0 8.0 0.00 0.00 0.00 34 1028.3
20210920163517 75 149 3.0 10.0 0.00 0.00 0.00 36 1028.0
20210920162524 75 145 6.0 15.0 0.00 0.00 0.00 36 1028.1
20210920161518 76 146 2.0 8.0 0.00 0.00 0.00 35 1028.2
20210920160525 73 167 5.0 10.0 0.00 0.00 0.00 38 1027.4
20210920155519 74 134 4.0 10.0 0.00 0.00 0.00 38 1027.8
20210920154525 73 170 5.0 13.0 0.00 0.00 0.00 39 1027.8
20210920153518 74 130 1.0 3.0 0.00 0.00 0.00 38 1027.8
20210920152525 72 104 2.0 8.0 0.00 0.00 0.00 39 1027.4
20210920151518 71 142 1.0 5.0 0.00 0.00 0.00 42 1027.2
20210920150526 70 180 4.0 13.0 0.00 0.00 0.00 43 1027.1
20210920145519 69 159 5.0 8.0 0.00 0.00 0.00 43 1026.6
20210920144526 69 162 6.0 10.0 0.00 0.00 0.00 44 1026.6